Home > Products > Valid Products > MTR

000
SAUS44 KMRX 292152
MTRGDP
METAR KGDP 292151Z AUTO 06039G43KT 10SM BKN065 OVC090 08/M01 A3033
RMK AO2 PK WND 06044/2150 SLP237 T00781006





000
SAUS44 KMRX 292152
MTRGDP
METAR KGDP 292151Z AUTO 06039G43KT 10SM BKN065 OVC090 08/M01 A3033
RMK AO2 PK WND 06044/2150 SLP237 T00781006





000
SAUS44 KMRX 292052
MTRGDP
METAR KGDP 292051Z AUTO 06032G42KT 10SM SCT060 BKN080 OVC100 08/M01
A3034 RMK AO2 PK WND 05044/2021 SLP241 T00831006 56005





000
SAUS44 KMRX 291952
MTRGDP
METAR KGDP 291951Z AUTO 06033G42KT 10SM FEW065 OVC100 10/M01 A3034
RMK AO2 PK WND 05044/1914 SLP237 T01001006





000
SAUS44 KMRX 291852
MTRGDP
METAR KGDP 291851Z AUTO 05039KT 10SM BKN065 09/M01 A3035 RMK AO2 PK
WND 05049/1814 SLP242 T00941006





000
SAUS44 KMRX 291752
MTRGDP
METAR KGDP 291751Z AUTO 06037G47KT 10SM CLR 09/M01 A3035 RMK AO2 PK
WND 06047/1729 SLP240 T00941006 10144 20072 52009





000
SAUS44 KMRX 291652
MTRGDP
METAR KGDP 291651Z AUTO 05036G43KT 10SM CLR 11/M01 A3034 RMK AO2 PK
WND 06043/1644 SLP235 T01111006





000
SAUS44 KMRX 291552
MTRGDP
METAR KGDP 291551Z AUTO 07023KT 10SM CLR 13/01 A3033 RMK AO2 PK WND
07026/1549 SLP224 T01280006





000
SAUS44 KMRX 291452
MTRGDP
METAR KGDP 291451Z AUTO 05016KT 10SM CLR 13/M01 A3032 RMK AO2 PK WND
06026/1353 SLP221 T01331006 53016





000
SAUS44 KMRX 291352
MTRGDP
METAR KGDP 291351Z AUTO 06024KT 10SM CLR 08/M01 A3028 RMK AO2 PK WND
05028/1329 SLP216 T00781006





000
SAUS44 KMRX 291252
MTRGDP
METAR KGDP 291251Z AUTO 06022KT 10SM CLR 10/M02 A3026 RMK AO2 SLP204
T01001017





000
SAUS44 KMRX 291152
MTRGDP
METAR KGDP 291151Z AUTO 04012KT 10SM CLR 12/M04 A3027 RMK AO2 SLP199
T01171044 10144 20100 51010





000
SAUS44 KMRX 291052
MTRGDP
METAR KGDP 291051Z AUTO 01004KT 10SM CLR 14/M03 A3026 RMK AO2 SLP187
T01441028





000
SAUS44 KMRX 290952
MTRGDP
METAR KGDP 290951Z AUTO 24005KT 10SM CLR 12/01 A3024 RMK AO2 SLP182
T01220006





000
SAUS44 KMRX 290852
MTRGDP
METAR KGDP 290851Z AUTO VRB05KT 10SM CLR 12/01 A3023 RMK AO2 SLP181
T01170006 55001





000
SAUS44 KMRX 290752
MTRGDP
METAR KGDP 290751Z AUTO 25006KT 10SM CLR 12/01 A3022 RMK AO2 SLP179
T01170011





000
SAUS44 KMRX 290652
MTRGDP
METAR KGDP 290651Z AUTO 25012KT 10SM CLR 12/01 A3023 RMK AO2 SLP183
T01220011 402060072





000
SAUS44 KMRX 290552
MTRGDP
METAR KGDP 290551Z AUTO 26008KT 10SM CLR 13/01 A3024 RMK AO2 SLP188
T01330011 10172 20133 51006





000
SAUS44 KMRX 290452
MTRGDP
METAR KGDP 290451Z AUTO 26014KT 10SM CLR 13/01 A3023 RMK AO2 SLP195
T01330011





000
SAUS44 KMRX 290352
MTRGDP
METAR KGDP 290351Z AUTO 28015KT 10SM CLR 15/01 A3022 RMK AO2 SLP195
T01500006





000
SAUS44 KMRX 290252
MTRGDP
METAR KGDP 290251Z AUTO 26017KT 10SM CLR 14/00 A3022 RMK AO2 SLP192
T01440000 51016





000
SAUS44 KMRX 290152
MTRGDP
METAR KGDP 290151Z AUTO 26015KT 10SM CLR 14/00 A3021 RMK AO2 SLP189
T01390000





000
SAUS44 KMRX 290052
MTRGDP
METAR KGDP 290051Z AUTO 24015KT 10SM CLR 15/01 A3018 RMK AO2 SLP180
T01500006





000
SAUS44 KMRX 290052
MTRGDP
METAR KGDP 290051Z AUTO 24015KT 10SM CLR 15/01 A3018 RMK AO2 SLP180
T01500006





000
SAUS44 KMRX 282352
MTRGDP
METAR KGDP 282351Z AUTO 24014G23KT 10SM CLR 17/02 A3016 RMK AO2 PK
WND 26032/2314 SLP168 T01720017 10206 20150 55005





000
SAUS44 KMRX 282252
MTRGDP
METAR KGDP 282251Z AUTO 25021G26KT 10SM CLR 19/03 A3015 RMK AO2 PK
WND 25031/2207 SLP159 T01940028





000
SAUS44 KMRX 282152
MTRGDP
METAR KGDP 282151Z AUTO 26025G30KT 10SM CLR 21/03 A3016 RMK AO2 PK
WND 24031/2117 SLP163 T02060033





000
SAUS44 KMRX 282052
MTRGDP
METAR KGDP 282051Z AUTO 25018G33KT 240V300 10SM CLR 20/04 A3018 RMK
AO2 PK WND 24033/2045 SLP164 T02000039 56026





000
SAUS44 KMRX 281952
MTRGDP
METAR KGDP 281951Z AUTO 24017G26KT 10SM CLR 19/04 A3020 RMK AO2 PK
WND 25028/1937 SLP173 T01940039





000
SAUS44 KMRX 281852
MTRGDP
METAR KGDP 281851Z AUTO 25017G23KT 10SM CLR 18/04 A3023 RMK AO2
SLP186 T01830039





000
SAUS44 KMRX 281752
MTRGDP
METAR KGDP 281751Z AUTO 23014KT 10SM CLR 15/05 A3027 RMK AO2 SLP202
T01500050 10150 20072 50005





000
SAUS44 KMRX 281652
MTRGDP
METAR KGDP 281651Z AUTO 25010KT 10SM CLR 11/04 A3028 RMK AO2 SLP213
T01110044





000
SAUS44 KMRX 281552
MTRGDP
METAR KGDP 281551Z AUTO 21013KT 10SM CLR 08/04 A3026 RMK AO2 SLP211
T00830039





000
SAUS44 KMRX 281552
MTRGDP
METAR KGDP 281551Z AUTO 21013KT 10SM CLR 08/04 A3026 RMK AO2 SLP211
T00830039





000
SAUS44 KMRX 281452
MTRGDP
METAR KGDP 281451Z AUTO 24014KT 10SM CLR 08/04 A3025 RMK AO2 SLP209
T00830044 53007





000
SAUS44 KMRX 281452
MTRGDP
METAR KGDP 281451Z AUTO 24014KT 10SM CLR 08/04 A3025 RMK AO2 SLP209
T00830044 53007





000
SAUS44 KMRX 281352
MTRGDP
METAR KGDP 281351Z AUTO 23012KT 10SM CLR 09/04 A3024 RMK AO2 SLP202
T00940039 $





000
SAUS44 KMRX 281252
MTRGDP
METAR KGDP 281251Z AUTO 25011KT 10SM CLR 08/03 A3023 RMK AO2 SLP200
T00780033





000
SAUS44 KMRX 281152
MTRGDP
METAR KGDP 281151Z AUTO 24012KT 10SM CLR 08/03 A3023 RMK AO2 SLP195
7//// T00780028 10122 20078 55003





000
SAUS44 KMRX 281052
MTRGDP
METAR KGDP 281051Z AUTO 22012KT 10SM CLR 09/02 A3022 RMK AO2 SLP187
T00940022





000
SAUS44 KMRX 280952
MTRGDP
METAR KGDP 280951Z AUTO 22010KT 10SM CLR 08/03 A3024 RMK AO2 SLP194
T00830033





000
SAUS44 KMRX 280952
MTRGDP
METAR KGDP 280951Z AUTO 22010KT 10SM CLR 08/03 A3024 RMK AO2 SLP194
T00830033





000
SAUS44 KMRX 280852
MTRGDP
METAR KGDP 280851Z AUTO 25010KT 10SM CLR 11/03 A3024 RMK AO2 SLP190
T01060033 58007





000
SAUS44 KMRX 280752
MTRGDP
METAR KGDP 280751Z AUTO 24011KT 10SM CLR 10/04 A3025 RMK AO2 SLP194
T01000039





000
SAUS44 KMRX 280752
MTRGDP
METAR KGDP 280751Z AUTO 24011KT 10SM CLR 10/04 A3025 RMK AO2 SLP194
T01000039





000
SAUS44 KMRX 280652
MTRGDP
METAR KGDP 280651Z AUTO 23009KT 10SM CLR 10/04 A3027 RMK AO2 SLP205
T01000039





000
SAUS44 KMRX 280652
MTRGDP
METAR KGDP 280651Z AUTO 23009KT 10SM CLR 10/04 A3027 RMK AO2 SLP205
T01000039





000
SAUS44 KMRX 280552
MTRGDP
METAR KGDP 280551Z AUTO 22009KT 10SM CLR 12/04 A3027 RMK AO2 SLPNO
T01220039 10167 20117 58003





000
SAUS44 KMRX 280552
MTRGDP
METAR KGDP 280551Z AUTO 22009KT 10SM CLR 12/04 A3027 RMK AO2 SLPNO
T01220039 10167 20117 58003





000
SAUS44 KMRX 280452
MTRGDP
METAR KGDP 280451Z AUTO 22008KT 10SM CLR 12/04 A3027 RMK AO2 SLPNO
T01220039





000
SAUS44 KMRX 280352
MTRGDP
METAR KGDP 280351Z AUTO 22008KT 10SM CLR 12/03 A3028 RMK AO2 SLPNO
T01220033





000
SAUS44 KMRX 280352
MTRGDP
METAR KGDP 280351Z AUTO 22008KT 10SM CLR 12/03 A3028 RMK AO2 SLPNO
T01220033





000
SAUS44 KMRX 280252
MTRGDP
METAR KGDP 280251Z AUTO 24009KT 10SM CLR 13/04 A3028 RMK AO2 SLPNO
T01280039 51005





000
SAUS44 KMRX 280252
MTRGDP
METAR KGDP 280251Z AUTO 24009KT 10SM CLR 13/04 A3028 RMK AO2 SLPNO
T01280039 51005





000
SAUS44 KMRX 280152
MTRGDP
METAR KGDP 280151Z AUTO 25011KT 10SM CLR 13/04 A3027 RMK AO2 SLPNO
T01330039





000
SAUS44 KMRX 280052
MTRGDP
METAR KGDP 280051Z AUTO 25011KT 10SM CLR 14/04 A3027 RMK AO2 SLPNO
T01390039





000
SAUS44 KMRX 272352
MTRGDP
METAR KGDP 272351Z AUTO 24013KT 10SM CLR 17/04 A3026 RMK AO2 SLPNO
T01670039 10189 20139 56005





000
SAUS44 KMRX 272252
MTRGDP
METAR KGDP 272251Z AUTO 24018KT 10SM CLR 18/04 A3026 RMK AO2 PK WND
24026/2206 SLPNO T01780039





000
SAUS44 KMRX 272152
MTRGDP
METAR KGDP 272151Z AUTO 24020G23KT 10SM CLR 18/01 A3027 RMK AO2 PK
WND 24027/2115 SLPNO T01830011





000
SAUS44 KMRX 272052
MTRGDP
METAR KGDP 272051Z AUTO 24020G26KT 10SM CLR 18/00 A3028 RMK AO2 PK
WND 24026/2049 SLPNO T01830000





000
SAUS44 KMRX 271952
MTRGDP
METAR KGDP 271951Z AUTO 25018KT 10SM CLR 18/M02 A3030 RMK AO2 SLPNO
T01831022





000
SAUS44 KMRX 271852
MTRGDP
METAR KGDP 271851Z AUTO 23012G19KT 10SM 15/M02 A3033 RMK AO2 SLPNO
T01501022





    US Dept of Commerce
    National Oceanic and Atmospheric Administration
    National Weather Service
    1325 East West Highway
    Silver Spring, MD 20910
    Page Author: NWS Internet Services Team
Disclaimer
Information Quality
Credits
Glossary
Privacy Policy
Freedom of Information Act (FOIA)
About Us
Career Opportunities